createdAt,value
2018-11-10T00:01:41.118Z,12.30
2018-11-10T00:04:10.998Z,12.30
2018-11-10T00:06:40.188Z,12.40
2018-11-10T00:09:09.079Z,12.30
2018-11-10T00:11:37.845Z,12.40
2018-11-10T00:14:06.795Z,12.40
2018-11-10T00:16:35.785Z,12.40
2018-11-10T00:19:04.754Z,12.30
2018-11-10T00:21:34.127Z,12.30
2018-11-10T00:24:02.927Z,12.40
2018-11-10T00:26:31.710Z,12.40
2018-11-10T00:29:00.459Z,12.40
2018-11-10T00:31:29.561Z,12.40
2018-11-10T00:34:01.581Z,12.40
2018-11-10T00:36:30.712Z,12.40
2018-11-10T00:38:59.478Z,12.40
2018-11-10T00:41:28.458Z,12.40
2018-11-10T00:43:57.326Z,12.40
2018-11-10T00:46:26.407Z,12.40
2018-11-10T00:48:55.278Z,12.40
2018-11-10T00:51:24.245Z,12.40
2018-11-10T00:53:53.078Z,12.40
2018-11-10T00:56:22.593Z,12.40
2018-11-10T00:58:51.588Z,12.30
2018-11-10T01:01:20.463Z,12.30
2018-11-10T01:03:49.397Z,12.30
2018-11-10T01:06:18.443Z,12.30
2018-11-10T01:08:47.702Z,12.30
2018-11-10T01:11:16.868Z,12.30
2018-11-10T01:13:45.527Z,12.30
2018-11-10T01:16:14.805Z,12.20
2018-11-10T01:18:43.853Z,12.20
2018-11-10T01:21:12.672Z,12.20
2018-11-10T01:23:41.499Z,12.10
2018-11-10T01:26:10.262Z,12.10
2018-11-10T01:28:39.636Z,12.10
2018-11-10T01:31:08.957Z,12.00
2018-11-10T01:33:37.781Z,12.00
2018-11-10T01:36:07.041Z,12.00
2018-11-10T01:38:35.930Z,12.00
2018-11-10T01:41:05.537Z,12.00
2018-11-10T01:43:34.389Z,11.90
2018-11-10T01:46:03.513Z,11.90
2018-11-10T01:48:32.403Z,11.90
2018-11-10T01:51:01.497Z,11.90
2018-11-10T01:53:30.437Z,11.90
2018-11-10T01:55:59.407Z,11.90
2018-11-10T01:58:28.351Z,11.90
2018-11-10T02:00:57.459Z,11.90
2018-11-10T02:03:26.559Z,11.80
2018-11-10T02:05:55.862Z,11.70
2018-11-10T02:08:24.738Z,11.70
2018-11-10T02:10:53.640Z,11.60
2018-11-10T02:13:23.177Z,11.50
2018-11-10T02:15:52.117Z,11.50
2018-11-10T02:18:21.031Z,11.40
2018-11-10T02:20:49.967Z,11.40
2018-11-10T02:23:20.191Z,11.40
2018-11-10T02:25:49.222Z,11.40
2018-11-10T02:28:18.080Z,11.30
2018-11-10T02:30:47.300Z,11.30
2018-11-10T02:33:16.310Z,11.30
2018-11-10T02:35:45.670Z,11.30
2018-11-10T02:38:14.934Z,11.30
2018-11-10T02:40:43.948Z,11.30
2018-11-10T02:43:13.208Z,11.30
2018-11-10T02:45:41.982Z,11.30
2018-11-10T02:48:11.352Z,11.30
2018-11-10T02:50:40.447Z,11.30
2018-11-10T02:53:09.560Z,11.30
2018-11-10T02:55:38.907Z,11.30
2018-11-10T02:58:08.902Z,11.30
2018-11-10T03:00:38.332Z,11.30
2018-11-10T03:03:07.696Z,11.30
2018-11-10T03:05:36.678Z,11.30
2018-11-10T03:08:05.814Z,11.30
2018-11-10T03:10:34.901Z,11.40
2018-11-10T03:13:04.199Z,11.30
2018-11-10T03:15:34.104Z,11.40
2018-11-10T03:18:02.879Z,11.30
2018-11-10T03:20:31.767Z,11.30
2018-11-10T03:23:00.647Z,11.30
2018-11-10T03:25:29.764Z,11.20
2018-11-10T03:27:58.601Z,11.20
2018-11-10T03:30:28.180Z,11.20
2018-11-10T03:32:57.133Z,11.20
2018-11-10T03:35:25.863Z,11.20
2018-11-10T03:37:54.753Z,11.20
2018-11-10T03:40:23.532Z,11.20
2018-11-10T03:42:52.181Z,11.20
2018-11-10T03:45:20.859Z,11.20
2018-11-10T03:47:49.662Z,11.20
2018-11-10T03:50:18.678Z,11.20
2018-11-10T03:52:47.406Z,11.20
2018-11-10T03:55:16.224Z,11.20
2018-11-10T03:57:45.017Z,11.20
2018-11-10T04:00:16.160Z,11.10
2018-11-10T04:02:46.165Z,11.20
2018-11-10T04:05:15.447Z,11.20
2018-11-10T04:07:45.070Z,11.20
2018-11-10T04:10:14.331Z,11.10
2018-11-10T04:12:43.040Z,11.10
2018-11-10T04:15:11.747Z,11.10
2018-11-10T04:17:40.438Z,11.10
2018-11-10T04:20:09.978Z,11.10
2018-11-10T04:22:38.958Z,11.10
2018-11-10T04:25:10.302Z,11.10
2018-11-10T04:27:38.937Z,11.20
2018-11-10T04:30:09.211Z,11.20
2018-11-10T04:32:38.051Z,11.10
2018-11-10T04:35:07.918Z,11.20
2018-11-10T04:37:37.009Z,11.20
2018-11-10T04:40:06.782Z,11.20
2018-11-10T04:42:35.509Z,11.20
2018-11-10T04:45:04.399Z,11.20
2018-11-10T04:47:33.085Z,11.20
2018-11-10T04:50:01.837Z,11.20
2018-11-10T04:52:30.769Z,11.20
2018-11-10T04:54:59.558Z,11.20
2018-11-10T04:57:28.425Z,11.20
2018-11-10T04:59:57.249Z,11.20
2018-11-10T05:02:26.088Z,11.30
2018-11-10T05:04:55.257Z,11.30
2018-11-10T05:07:23.976Z,11.30
2018-11-10T05:09:52.780Z,11.30
2018-11-10T05:12:21.444Z,11.30
2018-11-10T05:14:50.113Z,11.30
2018-11-10T05:17:20.027Z,11.30
2018-11-10T05:19:48.708Z,11.30
2018-11-10T05:22:17.600Z,11.30
2018-11-10T05:24:46.289Z,11.30
2018-11-10T05:27:14.982Z,11.40
2018-11-10T05:29:43.859Z,11.40
2018-11-10T05:32:13.012Z,11.40
2018-11-10T05:34:41.658Z,11.40
2018-11-10T05:37:10.713Z,11.50
2018-11-10T05:39:42.558Z,11.50
2018-11-10T05:42:11.208Z,11.50
2018-11-10T05:44:39.910Z,11.50
2018-11-10T05:47:08.868Z,11.50
2018-11-10T05:49:37.586Z,11.50
2018-11-10T05:52:06.816Z,11.60
2018-11-10T05:54:36.078Z,11.50
2018-11-10T05:57:04.811Z,11.50
2018-11-10T05:59:33.832Z,11.50
2018-11-10T06:02:02.731Z,11.50
2018-11-10T06:04:31.801Z,11.60
2018-11-10T06:07:00.726Z,11.60
2018-11-10T06:09:29.680Z,11.60
2018-11-10T06:11:58.707Z,11.60
2018-11-10T06:14:27.391Z,11.70
2018-11-10T06:16:56.207Z,11.70
2018-11-10T06:19:25.397Z,11.70
2018-11-10T06:21:54.378Z,11.70
2018-11-10T06:24:23.505Z,11.70
2018-11-10T06:26:52.429Z,11.70
2018-11-10T06:29:21.764Z,11.80
2018-11-10T06:31:51.301Z,11.80
2018-11-10T06:34:20.331Z,11.70
2018-11-10T06:36:49.046Z,11.80
2018-11-10T06:39:18.140Z,11.80
2018-11-10T06:41:47.064Z,11.80
2018-11-10T06:44:16.238Z,11.80
2018-11-10T06:46:45.335Z,11.80
2018-11-10T06:49:14.183Z,11.80
2018-11-10T06:51:43.032Z,11.80
2018-11-10T06:54:11.727Z,11.80
2018-11-10T06:56:40.403Z,11.80
2018-11-10T06:59:09.167Z,11.80
2018-11-10T07:01:37.960Z,11.80
2018-11-10T07:04:07.070Z,11.80
2018-11-10T07:06:36.454Z,11.80
2018-11-10T07:09:08.396Z,11.80
2018-11-10T07:11:37.410Z,11.90
2018-11-10T07:14:06.811Z,11.90
2018-11-10T07:16:35.526Z,11.90
2018-11-10T07:19:04.686Z,11.90
2018-11-10T07:21:33.588Z,12.00
2018-11-10T07:24:02.656Z,12.00
2018-11-10T07:26:31.468Z,12.00
2018-11-10T07:29:00.392Z,11.90
2018-11-10T07:31:29.059Z,12.00
2018-11-10T07:33:57.962Z,12.00
2018-11-10T07:36:26.973Z,12.00
2018-11-10T07:38:55.812Z,12.00
2018-11-10T07:41:24.610Z,12.00
2018-11-10T07:43:53.673Z,12.10
2018-11-10T07:46:22.588Z,12.00
2018-11-10T07:48:51.801Z,12.10
2018-11-10T07:51:21.146Z,12.10
2018-11-10T07:53:49.913Z,12.10
2018-11-10T07:56:18.772Z,12.10
2018-11-10T07:58:47.626Z,12.20
2018-11-10T08:01:16.949Z,12.10
2018-11-10T08:03:45.861Z,12.20
2018-11-10T08:06:14.890Z,12.20
2018-11-10T08:08:44.868Z,12.20
2018-11-10T08:11:13.866Z,12.20
2018-11-10T08:13:42.704Z,12.20
2018-11-10T08:16:11.339Z,12.20
2018-11-10T08:18:40.924Z,12.20
2018-11-10T08:21:09.598Z,12.20
2018-11-10T08:23:38.358Z,12.20
2018-11-10T08:26:07.357Z,12.30
2018-11-10T08:28:36.330Z,12.30
2018-11-10T08:31:05.129Z,12.30
2018-11-10T08:33:34.131Z,12.40
2018-11-10T08:36:03.500Z,12.40
2018-11-10T08:38:32.709Z,12.40
2018-11-10T08:41:01.436Z,12.40
2018-11-10T08:43:30.503Z,12.40
2018-11-10T08:45:59.325Z,12.40
2018-11-10T08:48:28.611Z,12.30
2018-11-10T08:50:57.432Z,12.30
2018-11-10T08:53:26.245Z,12.30
2018-11-10T08:55:55.594Z,12.30
2018-11-10T08:58:24.490Z,12.40
2018-11-10T09:00:53.502Z,12.40
2018-11-10T09:03:22.574Z,12.40
2018-11-10T09:05:51.475Z,12.40
2018-11-10T09:08:21.471Z,12.40
2018-11-10T09:10:50.299Z,12.40
2018-11-10T09:13:19.591Z,12.30
2018-11-10T09:15:48.502Z,12.30
2018-11-10T09:18:17.375Z,12.30
2018-11-10T09:20:46.193Z,12.30
2018-11-10T09:23:15.223Z,12.40
2018-11-10T09:25:44.155Z,12.40
2018-11-10T09:28:13.285Z,12.50
2018-11-10T09:30:42.272Z,12.50
2018-11-10T09:33:11.063Z,12.60
2018-11-10T09:35:40.399Z,12.70
2018-11-10T09:38:09.352Z,12.80
2018-11-10T09:40:38.227Z,12.90
2018-11-10T09:43:07.183Z,12.90
2018-11-10T09:45:36.153Z,13.00
2018-11-10T09:48:04.933Z,13.10
2018-11-10T09:50:34.050Z,13.10
2018-11-10T09:53:03.082Z,13.10
2018-11-10T09:55:32.274Z,13.30
2018-11-10T09:58:01.130Z,13.30
2018-11-10T10:00:29.849Z,13.30
2018-11-10T10:02:58.811Z,13.30
2018-11-10T10:05:27.714Z,13.30
2018-11-10T10:07:56.510Z,13.20
2018-11-10T10:10:26.008Z,13.20
2018-11-10T10:12:55.045Z,13.20
2018-11-10T10:15:24.504Z,13.10
2018-11-10T10:17:54.461Z,13.10
2018-11-10T10:20:24.348Z,13.00
2018-11-10T10:22:53.546Z,13.00
2018-11-10T10:25:22.494Z,13.00
2018-11-10T10:27:52.107Z,13.10
2018-11-10T10:30:23.577Z,13.10
2018-11-10T10:32:52.589Z,13.10
2018-11-10T10:35:21.733Z,13.20
2018-11-10T10:37:52.495Z,13.30
2018-11-10T10:40:21.770Z,13.30
2018-11-10T10:42:51.622Z,13.30
2018-11-10T10:45:22.655Z,13.30
2018-11-10T10:47:51.618Z,13.30
2018-11-10T10:50:22.837Z,13.30
2018-11-10T10:52:51.565Z,13.40
2018-11-10T10:55:20.561Z,13.40
2018-11-10T10:57:50.479Z,13.40
2018-11-10T11:00:24.631Z,13.40
2018-11-10T11:04:01.298Z,13.40
2018-11-10T11:06:30.352Z,13.40
2018-11-10T11:08:59.929Z,13.50
2018-11-10T11:11:28.957Z,13.50
2018-11-10T11:13:57.782Z,13.60
2018-11-10T11:16:27.341Z,13.50
2018-11-10T11:18:56.556Z,13.50
2018-11-10T11:21:25.755Z,13.50
2018-11-10T11:23:54.925Z,13.50
2018-11-10T11:26:24.144Z,13.50
2018-11-10T11:28:53.769Z,13.40
2018-11-10T11:31:22.766Z,13.40
2018-11-10T11:33:52.102Z,13.40
2018-11-10T11:36:21.367Z,13.40
2018-11-10T11:38:50.699Z,13.40
2018-11-10T11:41:19.651Z,13.30
2018-11-10T11:43:48.502Z,13.30
2018-11-10T11:46:17.498Z,13.30
2018-11-10T11:48:50.110Z,13.20
2018-11-10T11:51:18.725Z,13.20
2018-11-10T11:53:47.612Z,13.20
2018-11-10T11:56:16.924Z,13.20
2018-11-10T11:58:46.455Z,13.20
2018-11-10T12:01:15.381Z,13.20
2018-11-10T12:03:44.542Z,13.20
2018-11-10T12:06:13.252Z,13.10
2018-11-10T12:08:42.432Z,13.10
2018-11-10T12:11:12.140Z,13.10
2018-11-10T12:13:41.659Z,13.00
2018-11-10T12:16:10.598Z,13.00
2018-11-10T12:18:39.921Z,13.00
2018-11-10T12:21:09.455Z,12.90
2018-11-10T12:23:38.798Z,12.80
2018-11-10T12:26:08.216Z,12.80
2018-11-10T12:28:37.257Z,12.80
2018-11-10T12:31:06.727Z,12.70
2018-11-10T12:33:35.752Z,12.60
2018-11-10T12:36:05.300Z,12.60
2018-11-10T12:38:34.506Z,12.50
2018-11-10T12:41:03.389Z,12.50
2018-11-10T12:43:32.393Z,12.50
2018-11-10T12:46:01.670Z,12.50
2018-11-10T12:48:30.713Z,12.40
2018-11-10T12:50:59.619Z,12.50
2018-11-10T12:53:28.710Z,12.50
2018-11-10T12:55:57.927Z,12.40
2018-11-10T12:58:26.524Z,12.40
2018-11-10T13:00:55.658Z,12.30
2018-11-10T13:03:24.723Z,12.20
2018-11-10T13:05:54.150Z,12.20
2018-11-10T13:08:22.914Z,12.10
2018-11-10T13:10:51.910Z,12.10
2018-11-10T13:13:20.912Z,12.10
2018-11-10T13:15:50.051Z,12.20
2018-11-10T13:18:18.738Z,12.20
2018-11-10T13:20:47.790Z,12.20
2018-11-10T13:23:16.668Z,12.20
2018-11-10T13:25:45.694Z,12.10
2018-11-10T13:28:14.556Z,12.10
2018-11-10T13:30:44.107Z,12.20
2018-11-10T13:33:12.825Z,12.20
2018-11-10T13:35:41.895Z,12.20
2018-11-10T13:38:10.717Z,12.20
2018-11-10T13:40:39.401Z,12.10
2018-11-10T13:43:08.843Z,12.20
2018-11-10T13:45:40.517Z,12.20
2018-11-10T13:48:10.350Z,12.20
2018-11-10T13:50:39.545Z,12.20
2018-11-10T13:53:08.762Z,12.30
2018-11-10T13:55:37.581Z,12.40
2018-11-10T13:58:06.840Z,12.50
2018-11-10T14:00:36.058Z,12.60
2018-11-10T14:03:05.083Z,12.70
2018-11-10T14:05:34.316Z,12.80
2018-11-10T14:08:03.124Z,13.00
2018-11-10T14:10:31.955Z,13.30
2018-11-10T14:13:01.027Z,13.40
2018-11-10T14:15:29.700Z,13.40
2018-11-10T14:17:59.437Z,13.40
2018-11-10T14:20:28.691Z,13.30
2018-11-10T14:22:57.762Z,13.20
2018-11-10T14:25:28.984Z,13.10
2018-11-10T14:27:58.336Z,13.10
2018-11-10T14:30:27.827Z,13.10
2018-11-10T14:32:56.424Z,13.10
2018-11-10T14:35:25.637Z,13.20
2018-11-10T14:37:55.028Z,13.10
2018-11-10T14:40:24.228Z,13.10
2018-11-10T14:42:53.423Z,13.10
2018-11-10T14:45:22.790Z,13.10
2018-11-10T14:47:52.160Z,13.10
2018-11-10T14:50:21.871Z,13.00
2018-11-10T14:52:51.058Z,12.90
2018-11-10T14:55:20.274Z,12.90
2018-11-10T14:57:49.688Z,13.00
2018-11-10T15:00:20.626Z,13.00
2018-11-10T15:02:50.298Z,13.00
2018-11-10T15:05:21.296Z,13.10
2018-11-10T15:07:50.725Z,13.10
2018-11-10T15:10:20.328Z,13.20
2018-11-10T15:12:49.662Z,13.30
2018-11-10T15:15:20.510Z,13.30
2018-11-10T15:17:49.790Z,13.40
2018-11-10T15:20:19.871Z,13.40
2018-11-10T15:22:48.871Z,13.40
2018-11-10T15:25:19.483Z,13.30
2018-11-10T15:27:50.802Z,13.20
2018-11-10T15:30:23.136Z,13.10
2018-11-10T15:32:52.760Z,13.00
2018-11-10T15:35:23.275Z,12.90
2018-11-10T15:37:53.561Z,12.90
2018-11-10T15:40:23.335Z,12.80
2018-11-10T15:42:53.455Z,12.70
2018-11-10T15:45:24.406Z,12.60
2018-11-10T15:47:55.333Z,12.50
2018-11-10T15:50:27.116Z,12.50
2018-11-10T15:52:56.018Z,12.40
2018-11-10T15:55:25.891Z,12.40
2018-11-10T15:57:56.206Z,12.40
2018-11-10T16:00:25.857Z,12.30
2018-11-10T16:02:54.877Z,12.20
2018-11-10T16:05:24.486Z,12.20
2018-11-10T16:07:53.723Z,12.10
2018-11-10T16:10:22.921Z,12.10
2018-11-10T16:12:52.476Z,12.00
2018-11-10T16:15:22.442Z,12.00
2018-11-10T16:17:52.257Z,12.00
2018-11-10T16:20:21.865Z,11.90
2018-11-10T16:22:51.878Z,11.80
2018-11-10T16:25:20.969Z,11.80
2018-11-10T16:27:50.557Z,11.80
2018-11-10T16:30:20.998Z,11.70
2018-11-10T16:32:50.984Z,11.60
2018-11-10T16:35:20.458Z,11.60
2018-11-10T16:37:49.532Z,11.60
2018-11-10T16:40:19.734Z,11.60
2018-11-10T16:42:49.830Z,11.60
2018-11-10T16:45:20.594Z,11.50
2018-11-10T16:47:50.647Z,11.50
2018-11-10T16:50:23.761Z,11.50
2018-11-10T16:52:53.199Z,11.40
2018-11-10T16:55:22.653Z,11.50
2018-11-10T16:57:51.744Z,11.50
2018-11-10T17:00:21.534Z,11.40
2018-11-10T17:02:51.150Z,11.50
2018-11-10T17:05:20.540Z,11.40
2018-11-10T17:07:52.228Z,11.40
2018-11-10T17:10:21.584Z,11.40
2018-11-10T17:12:51.335Z,11.30
2018-11-10T17:15:20.714Z,11.30
2018-11-10T17:17:49.895Z,11.30
2018-11-10T17:20:19.143Z,11.30
2018-11-10T17:22:48.535Z,11.30
2018-11-10T17:25:17.883Z,11.20
2018-11-10T17:27:46.961Z,11.20
2018-11-10T17:30:18.179Z,11.10
2018-11-10T17:32:47.105Z,11.20
2018-11-10T17:35:16.350Z,11.10
2018-11-10T17:37:45.839Z,11.10
2018-11-10T17:40:16.050Z,11.10
2018-11-10T17:42:45.496Z,11.00
2018-11-10T17:45:15.993Z,11.10
2018-11-10T17:47:46.119Z,11.00
2018-11-10T17:50:21.914Z,11.00
2018-11-10T17:52:51.862Z,11.00
2018-11-10T17:55:20.700Z,11.00
2018-11-10T17:57:52.921Z,10.90
2018-11-10T18:00:26.686Z,11.00
2018-11-10T18:02:57.090Z,11.00
2018-11-10T18:08:06.740Z,11.00
2018-11-10T18:10:40.738Z,11.00
2018-11-10T18:13:10.269Z,11.00
2018-11-10T18:15:39.488Z,11.00
2018-11-10T18:18:10.827Z,11.00
2018-11-10T18:20:40.014Z,11.00
2018-11-10T18:23:09.485Z,10.90
2018-11-10T18:25:39.097Z,10.90
2018-11-10T18:28:09.155Z,10.90
2018-11-10T18:30:39.170Z,10.90
2018-11-10T18:33:10.573Z,10.90
2018-11-10T18:35:40.277Z,10.90
2018-11-10T18:38:09.273Z,10.90
2018-11-10T18:40:38.309Z,10.80
2018-11-10T18:43:08.115Z,10.80
2018-11-10T18:45:37.610Z,10.80
2018-11-10T18:48:07.364Z,10.70
2018-11-10T18:50:37.038Z,10.70
2018-11-10T18:53:16.695Z,10.70
2018-11-10T18:55:45.782Z,10.60
2018-11-10T18:58:15.623Z,10.60
2018-11-10T19:00:44.656Z,10.60
2018-11-10T19:03:14.795Z,10.60
2018-11-10T19:05:44.471Z,10.60
2018-11-10T19:08:18.125Z,10.60
2018-11-10T19:10:47.858Z,10.60
2018-11-10T19:13:17.462Z,10.60
2018-11-10T19:15:46.565Z,10.60
2018-11-10T19:18:15.478Z,10.60
2018-11-10T19:20:50.701Z,10.60
2018-11-10T19:23:23.934Z,10.60
2018-11-10T19:25:53.184Z,10.60
2018-11-10T19:28:22.436Z,10.50
2018-11-10T19:30:52.160Z,10.50
2018-11-10T19:33:21.348Z,10.50
2018-11-10T19:35:51.730Z,10.50
2018-11-10T19:38:23.753Z,10.40
2018-11-10T19:40:57.749Z,10.40
2018-11-10T19:43:34.327Z,10.40
2018-11-10T19:46:06.246Z,10.30
2018-11-10T19:48:38.534Z,10.40
2018-11-10T19:51:14.178Z,10.40
2018-11-10T19:53:44.244Z,10.40
2018-11-10T19:56:13.642Z,10.40
2018-11-10T19:58:42.760Z,10.50
2018-11-10T20:01:13.368Z,10.50
2018-11-10T20:03:44.146Z,10.50
2018-11-10T20:06:14.755Z,10.50
2018-11-10T20:08:44.197Z,10.50
2018-11-10T20:11:14.067Z,10.60
2018-11-10T20:13:44.732Z,10.60
2018-11-10T20:16:13.876Z,10.60
2018-11-10T20:18:44.862Z,10.60
2018-11-10T20:21:14.400Z,10.60
2018-11-10T20:23:43.844Z,10.60
2018-11-10T20:26:13.549Z,10.70
2018-11-10T20:28:43.528Z,10.70
2018-11-10T20:31:12.880Z,10.70
2018-11-10T20:33:42.711Z,10.80
2018-11-10T20:36:11.626Z,10.70
2018-11-10T20:38:44.960Z,10.70
2018-11-10T20:41:23.011Z,10.70
2018-11-10T20:43:53.359Z,10.70
2018-11-10T20:46:28.811Z,10.70
2018-11-10T20:49:04.631Z,10.80
2018-11-10T20:51:39.618Z,10.80
2018-11-10T20:54:10.990Z,10.80
2018-11-10T20:56:40.197Z,10.80
2018-11-10T20:59:10.472Z,10.80
2018-11-10T21:01:39.986Z,10.90
2018-11-10T21:04:08.893Z,10.90
2018-11-10T21:06:38.641Z,10.90
2018-11-10T21:09:11.414Z,10.90
2018-11-10T21:11:40.915Z,10.90
2018-11-10T21:14:10.789Z,11.00
2018-11-10T21:16:40.293Z,11.00
2018-11-10T21:19:09.197Z,11.10
2018-11-10T21:21:38.052Z,11.10
2018-11-10T21:24:07.593Z,11.10
2018-11-10T21:26:37.062Z,11.20
2018-11-10T21:29:06.432Z,11.20
2018-11-10T21:31:36.216Z,11.20
2018-11-10T21:34:06.137Z,11.20
2018-11-10T21:36:35.088Z,11.20
2018-11-10T21:39:06.270Z,11.20
2018-11-10T21:41:35.603Z,11.20
2018-11-10T21:44:05.336Z,11.20
2018-11-10T21:46:34.811Z,11.20
2018-11-10T21:49:04.610Z,11.20
2018-11-10T21:51:34.044Z,11.30
2018-11-10T21:54:03.259Z,11.30
2018-11-10T21:56:33.106Z,11.40
2018-11-10T21:59:02.276Z,11.40
2018-11-10T22:01:32.361Z,11.40
2018-11-10T22:04:01.380Z,11.50
2018-11-10T22:06:30.460Z,11.50
2018-11-10T22:09:00.157Z,11.60
2018-11-10T22:11:29.188Z,11.60
2018-11-10T22:13:58.833Z,11.60
2018-11-10T22:16:28.021Z,11.60
2018-11-10T22:18:56.852Z,11.70
2018-11-10T22:21:26.407Z,11.70
2018-11-10T22:23:56.690Z,11.80
2018-11-10T22:26:26.300Z,11.80
2018-11-10T22:28:56.233Z,11.80
2018-11-10T22:31:26.904Z,11.80
2018-11-10T22:33:56.608Z,11.80
2018-11-10T22:36:26.430Z,11.80
2018-11-10T22:38:55.306Z,11.90
2018-11-10T22:41:24.504Z,11.90
2018-11-10T22:43:53.513Z,11.90
2018-11-10T22:46:22.560Z,11.90
2018-11-10T22:48:51.520Z,11.80
2018-11-10T22:51:20.771Z,11.80
2018-11-10T22:53:49.721Z,11.90
2018-11-10T22:56:18.705Z,11.90
2018-11-10T22:58:47.939Z,11.90
2018-11-10T23:01:17.124Z,11.80
2018-11-10T23:03:46.340Z,11.80
2018-11-10T23:06:15.297Z,11.80
2018-11-10T23:08:44.643Z,11.80
2018-11-10T23:11:13.751Z,11.80
2018-11-10T23:13:43.045Z,11.90
2018-11-10T23:16:12.070Z,11.90
2018-11-10T23:18:41.023Z,11.80
2018-11-10T23:21:09.983Z,11.80
2018-11-10T23:23:39.286Z,11.90
2018-11-10T23:26:14.501Z,11.90
2018-11-10T23:28:43.559Z,11.90
2018-11-10T23:31:13.068Z,11.90
2018-11-10T23:33:42.273Z,11.90
2018-11-10T23:36:12.708Z,11.90
2018-11-10T23:38:44.039Z,11.90
2018-11-10T23:41:13.451Z,11.90
2018-11-10T23:43:42.695Z,11.90
2018-11-10T23:46:12.399Z,12.00
2018-11-10T23:48:42.946Z,11.90
2018-11-10T23:51:13.624Z,12.00
2018-11-10T23:53:42.705Z,11.90
2018-11-10T23:56:12.405Z,11.90
2018-11-10T23:58:43.136Z,11.90
